sensor_id;sensor_type;location;lat;lon;timestamp;pressure;altitude;pressure_sealevel;temperature;humidity
63035;BME280;59750;53.356;-1.458;2023-01-23T00:02:20;102346.00;;;-0.57;100.00
63035;BME280;59750;53.356;-1.458;2023-01-23T00:04:46;102344.31;;;-0.54;100.00
63035;BME280;59750;53.356;-1.458;2023-01-23T00:07:14;102340.03;;;-0.43;100.00
63035;BME280;59750;53.356;-1.458;2023-01-23T00:09:40;102340.91;;;-0.35;100.00
63035;BME280;59750;53.356;-1.458;2023-01-23T00:12:05;102335.72;;;-0.36;100.00
63035;BME280;59750;53.356;-1.458;2023-01-23T00:14:31;102338.31;;;-0.32;100.00
63035;BME280;59750;53.356;-1.458;2023-01-23T00:16:57;102341.75;;;-0.31;100.00
63035;BME280;59750;53.356;-1.458;2023-01-23T00:19:24;102351.25;;;-0.32;100.00
63035;BME280;59750;53.356;-1.458;2023-01-23T00:21:50;102352.97;;;-0.32;100.00
63035;BME280;59750;53.356;-1.458;2023-01-23T00:24:15;102352.09;;;-0.36;100.00
63035;BME280;59750;53.356;-1.458;2023-01-23T00:26:41;102352.97;;;-0.35;100.00
63035;BME280;59750;53.356;-1.458;2023-01-23T00:29:08;102346.06;;;-0.36;100.00
63035;BME280;59750;53.356;-1.458;2023-01-23T00:31:36;102343.47;;;-0.35;100.00
63035;BME280;59750;53.356;-1.458;2023-01-23T00:34:07;102359.00;;;-0.38;100.00
63035;BME280;59750;53.356;-1.458;2023-01-23T00:36:37;102354.69;;;-0.40;100.00
63035;BME280;59750;53.356;-1.458;2023-01-23T00:39:06;102347.78;;;-0.43;100.00
63035;BME280;59750;53.356;-1.458;2023-01-23T00:41:33;102348.63;;;-0.44;100.00
63035;BME280;59750;53.356;-1.458;2023-01-23T00:43:59;102346.91;;;-0.45;100.00
63035;BME280;59750;53.356;-1.458;2023-01-23T00:46:25;102347.78;;;-0.44;100.00
63035;BME280;59750;53.356;-1.458;2023-01-23T00:48:50;102344.34;;;-0.43;100.00
63035;BME280;59750;53.356;-1.458;2023-01-23T00:51:16;102346.91;;;-0.42;100.00
63035;BME280;59750;53.356;-1.458;2023-01-23T00:53:43;102358.13;;;-0.41;100.00
63035;BME280;59750;53.356;-1.458;2023-01-23T00:56:09;102365.03;;;-0.40;100.00
63035;BME280;59750;53.356;-1.458;2023-01-23T00:58:35;102370.19;;;-0.39;100.00
63035;BME280;59750;53.356;-1.458;2023-01-23T01:01:02;102371.06;;;-0.35;100.00
63035;BME280;59750;53.356;-1.458;2023-01-23T01:03:28;102367.63;;;-0.29;100.00
63035;BME280;59750;53.356;-1.458;2023-01-23T01:05:54;102369.41;;;-0.25;100.00
63035;BME280;59750;53.356;-1.458;2023-01-23T01:08:20;102377.16;;;-0.18;100.00
63035;BME280;59750;53.356;-1.458;2023-01-23T01:10:46;102380.63;;;-0.16;100.00
63035;BME280;59750;53.356;-1.458;2023-01-23T01:13:12;102382.34;;;-0.15;100.00
63035;BME280;59750;53.356;-1.458;2023-01-23T01:15:39;102380.63;;;-0.13;100.00
63035;BME280;59750;53.356;-1.458;2023-01-23T01:18:05;102371.13;;;-0.11;100.00
63035;BME280;59750;53.356;-1.458;2023-01-23T01:20:31;102371.16;;;-0.05;100.00
63035;BME280;59750;53.356;-1.458;2023-01-23T01:22:58;102370.28;;;-0.04;100.00
63035;BME280;59750;53.356;-1.458;2023-01-23T01:25:26;102374.63;;;0.02;100.00
63035;BME280;59750;53.356;-1.458;2023-01-23T01:27:52;102372.03;;;0.07;100.00
63035;BME280;59750;53.356;-1.458;2023-01-23T01:30:18;102372.91;;;0.07;100.00
63035;BME280;59750;53.356;-1.458;2023-01-23T01:32:44;102376.34;;;0.12;100.00
63035;BME280;59750;53.356;-1.458;2023-01-23T01:35:11;102370.31;;;0.16;100.00
63035;BME280;59750;53.356;-1.458;2023-01-23T01:37:38;102372.91;;;0.18;100.00
63035;BME280;59750;53.356;-1.458;2023-01-23T01:40:06;102365.16;;;0.21;100.00
63035;BME280;59750;53.356;-1.458;2023-01-23T01:42:39;102364.28;;;0.19;100.00
63035;BME280;59750;53.356;-1.458;2023-01-23T01:48:11;102359.97;;;0.19;100.00
63035;BME280;59750;53.356;-1.458;2023-01-23T01:50:37;102364.28;;;0.17;100.00
63035;BME280;59750;53.356;-1.458;2023-01-23T01:53:05;102369.47;;;0.20;100.00
63035;BME280;59750;53.356;-1.458;2023-01-23T01:55:34;102372.91;;;0.24;100.00
63035;BME280;59750;53.356;-1.458;2023-01-23T01:58:02;102374.63;;;0.23;100.00
63035;BME280;59750;53.356;-1.458;2023-01-23T02:00:34;102390.16;;;0.22;100.00
63035;BME280;59750;53.356;-1.458;2023-01-23T02:03:05;102395.34;;;0.19;100.00
63035;BME280;59750;53.356;-1.458;2023-01-23T02:05:38;102398.78;;;0.19;100.00
63035;BME280;59750;53.356;-1.458;2023-01-23T02:08:16;102397.94;;;0.19;100.00
63035;BME280;59750;53.356;-1.458;2023-01-23T02:10:44;102396.19;;;0.18;100.00
63035;BME280;59750;53.356;-1.458;2023-01-23T02:16:02;102408.28;;;0.14;100.00
63035;BME280;59750;53.356;-1.458;2023-01-23T02:18:30;102403.97;;;0.16;100.00
63035;BME280;59750;53.356;-1.458;2023-01-23T02:20:59;102403.09;;;0.16;100.00
63035;BME280;59750;53.356;-1.458;2023-01-23T02:26:19;102410.88;;;0.13;100.00
63035;BME280;59750;53.356;-1.458;2023-01-23T02:28:49;102411.72;;;0.15;100.00
63035;BME280;59750;53.356;-1.458;2023-01-23T02:31:18;102418.63;;;0.16;100.00
63035;BME280;59750;53.356;-1.458;2023-01-23T02:33:49;102424.66;;;0.18;100.00
63035;BME280;59750;53.356;-1.458;2023-01-23T02:36:17;102423.81;;;0.16;100.00
63035;BME280;59750;53.356;-1.458;2023-01-23T02:39:06;102417.75;;;0.18;100.00
63035;BME280;59750;53.356;-1.458;2023-01-23T02:41:37;102416.91;;;0.18;100.00
63035;BME280;59750;53.356;-1.458;2023-01-23T02:44:13;102410.88;;;0.19;100.00
63035;BME280;59750;53.356;-1.458;2023-01-23T02:46:40;102408.28;;;0.22;100.00
63035;BME280;59750;53.356;-1.458;2023-01-23T02:49:06;102412.59;;;0.24;100.00
63035;BME280;59750;53.356;-1.458;2023-01-23T02:51:32;102420.41;;;0.27;100.00
63035;BME280;59750;53.356;-1.458;2023-01-23T02:54:00;102416.91;;;0.27;100.00
63035;BME280;59750;53.356;-1.458;2023-01-23T02:56:26;102404.84;;;0.26;100.00
63035;BME280;59750;53.356;-1.458;2023-01-23T02:58:52;102391.03;;;0.27;100.00
63035;BME280;59750;53.356;-1.458;2023-01-23T03:01:37;102388.44;;;0.27;100.00
63035;BME280;59750;53.356;-1.458;2023-01-23T03:04:03;102385.88;;;0.28;100.00
63035;BME280;59750;53.356;-1.458;2023-01-23T03:06:32;102384.16;;;0.32;100.00
63035;BME280;59750;53.356;-1.458;2023-01-23T03:09:08;102384.16;;;0.32;100.00
63035;BME280;59750;53.356;-1.458;2023-01-23T03:11:37;102385.88;;;0.30;100.00
63035;BME280;59750;53.356;-1.458;2023-01-23T03:14:04;102392.78;;;0.31;100.00
63035;BME280;59750;53.356;-1.458;2023-01-23T03:16:31;102392.78;;;0.34;100.00
63035;BME280;59750;53.356;-1.458;2023-01-23T03:18:58;102389.34;;;0.32;100.00
63035;BME280;59750;53.356;-1.458;2023-01-23T03:21:31;102385.88;;;0.28;100.00
63035;BME280;59750;53.356;-1.458;2023-01-23T03:23:58;102371.19;;;0.26;100.00
63035;BME280;59750;53.356;-1.458;2023-01-23T03:26:24;102374.63;;;0.26;100.00
63035;BME280;59750;53.356;-1.458;2023-01-23T03:28:51;102369.50;;;0.28;100.00
63035;BME280;59750;53.356;-1.458;2023-01-23T03:31:35;102378.09;;;0.27;100.00
63035;BME280;59750;53.356;-1.458;2023-01-23T03:34:01;102365.16;;;0.24;100.00
63035;BME280;59750;53.356;-1.458;2023-01-23T03:36:26;102365.16;;;0.22;100.00
63035;BME280;59750;53.356;-1.458;2023-01-23T03:38:52;102365.16;;;0.21;100.00
63035;BME280;59750;53.356;-1.458;2023-01-23T03:41:36;102372.91;;;0.18;100.00
63035;BME280;59750;53.356;-1.458;2023-01-23T03:44:07;102365.16;;;0.18;100.00
63035;BME280;59750;53.356;-1.458;2023-01-23T03:46:34;102370.31;;;0.18;100.00
63035;BME280;59750;53.356;-1.458;2023-01-23T03:49:00;102378.94;;;0.14;100.00
63035;BME280;59750;53.356;-1.458;2023-01-23T03:51:27;102365.16;;;0.12;100.00
63035;BME280;59750;53.356;-1.458;2023-01-23T03:53:53;102359.97;;;0.13;100.00
63035;BME280;59750;53.356;-1.458;2023-01-23T03:56:19;102364.28;;;0.11;100.00
63035;BME280;59750;53.356;-1.458;2023-01-23T03:58:45;102357.38;;;0.09;100.00
63035;BME280;59750;53.356;-1.458;2023-01-23T04:01:17;102348.75;;;0.08;100.00
63035;BME280;59750;53.356;-1.458;2023-01-23T04:03:48;102348.75;;;0.05;100.00
63035;BME280;59750;53.356;-1.458;2023-01-23T04:06:19;102337.53;;;0.05;100.00
63035;BME280;59750;53.356;-1.458;2023-01-23T04:08:52;102339.28;;;0.09;100.00
63035;BME280;59750;53.356;-1.458;2023-01-23T04:11:19;102338.41;;;0.13;100.00
63035;BME280;59750;53.356;-1.458;2023-01-23T04:13:46;102339.25;;;0.10;100.00
63035;BME280;59750;53.356;-1.458;2023-01-23T04:16:12;102341.84;;;0.09;100.00
63035;BME280;59750;53.356;-1.458;2023-01-23T04:18:40;102335.81;;;0.04;100.00
63035;BME280;59750;53.356;-1.458;2023-01-23T04:21:07;102349.56;;;-0.10;100.00
63035;BME280;59750;53.356;-1.458;2023-01-23T04:23:33;102357.34;;;-0.20;100.00
63035;BME280;59750;53.356;-1.458;2023-01-23T04:26:02;102375.38;;;-0.31;100.00
63035;BME280;59750;53.356;-1.458;2023-01-23T04:28:28;102366.75;;;-0.38;100.00
63035;BME280;59750;53.356;-1.458;2023-01-23T04:30:54;102374.47;;;-0.47;100.00
63035;BME280;59750;53.356;-1.458;2023-01-23T04:33:20;102373.63;;;-0.50;100.00
63035;BME280;59750;53.356;-1.458;2023-01-23T04:36:04;102370.97;;;-0.63;100.00
63035;BME280;59750;53.356;-1.458;2023-01-23T04:38:32;102374.38;;;-0.68;100.00
63035;BME280;59750;53.356;-1.458;2023-01-23T04:40:58;102378.69;;;-0.69;100.00
63035;BME280;59750;53.356;-1.458;2023-01-23T04:43:24;102373.53;;;-0.69;100.00
63035;BME280;59750;53.356;-1.458;2023-01-23T04:45:53;102375.22;;;-0.74;100.00
63035;BME280;59750;53.356;-1.458;2023-01-23T04:48:20;102376.94;;;-0.79;100.00
63035;BME280;59750;53.356;-1.458;2023-01-23T04:50:47;102376.94;;;-0.80;100.00
63035;BME280;59750;53.356;-1.458;2023-01-23T04:53:13;102370.84;;;-0.84;100.00
63035;BME280;59750;53.356;-1.458;2023-01-23T04:55:39;102370.81;;;-0.90;100.00
63035;BME280;59750;53.356;-1.458;2023-01-23T04:58:05;102376.84;;;-0.91;100.00
63035;BME280;59750;53.356;-1.458;2023-01-23T05:00:31;102378.56;;;-0.90;100.00
63035;BME280;59750;53.356;-1.458;2023-01-23T05:02:57;102376.84;;;-0.94;100.00
63035;BME280;59750;53.356;-1.458;2023-01-23T05:05:24;102381.13;;;-0.99;100.00
63035;BME280;59750;53.356;-1.458;2023-01-23T05:07:50;102385.41;;;-1.01;100.00
63035;BME280;59750;53.356;-1.458;2023-01-23T05:10:17;102394.88;;;-1.03;100.00
63035;BME280;59750;53.356;-1.458;2023-01-23T05:12:42;102400.06;;;-0.99;100.00
63035;BME280;59750;53.356;-1.458;2023-01-23T05:15:09;102394.06;;;-0.96;100.00
63035;BME280;59750;53.356;-1.458;2023-01-23T05:17:35;102397.50;;;-0.94;100.00
63035;BME280;59750;53.356;-1.458;2023-01-23T05:20:03;102402.69;;;-0.91;100.00
63035;BME280;59750;53.356;-1.458;2023-01-23T05:22:29;102414.75;;;-0.88;100.00
63035;BME280;59750;53.356;-1.458;2023-01-23T05:24:55;102418.22;;;-0.85;100.00
63035;BME280;59750;53.356;-1.458;2023-01-23T05:27:21;102415.69;;;-0.82;100.00
63035;BME280;59750;53.356;-1.458;2023-01-23T05:29:47;102412.25;;;-0.81;100.00
63035;BME280;59750;53.356;-1.458;2023-01-23T05:32:13;102413.97;;;-0.78;100.00
63035;BME280;59750;53.356;-1.458;2023-01-23T05:34:39;102413.13;;;-0.76;100.00
63035;BME280;59750;53.356;-1.458;2023-01-23T05:37:05;102420.03;;;-0.70;100.00
63035;BME280;59750;53.356;-1.458;2023-01-23T05:39:32;102412.31;;;-0.67;100.00
63035;BME280;59750;53.356;-1.458;2023-01-23T05:41:57;102414.88;;;-0.66;100.00
63035;BME280;59750;53.356;-1.458;2023-01-23T05:44:23;102408.00;;;-0.60;100.00
63035;BME280;59750;53.356;-1.458;2023-01-23T05:46:50;102410.59;;;-0.59;100.00
63035;BME280;59750;53.356;-1.458;2023-01-23T05:49:16;102408.06;;;-0.54;100.00
63035;BME280;59750;53.356;-1.458;2023-01-23T05:51:41;102409.81;;;-0.52;100.00
63035;BME280;59750;53.356;-1.458;2023-01-23T05:54:09;102406.41;;;-0.40;100.00
63035;BME280;59750;53.356;-1.458;2023-01-23T05:56:36;102408.13;;;-0.35;100.00
63035;BME280;59750;53.356;-1.458;2023-01-23T05:59:02;102415.03;;;-0.29;100.00
63035;BME280;59750;53.356;-1.458;2023-01-23T06:01:30;102418.56;;;-0.15;100.00
63035;BME280;59750;53.356;-1.458;2023-01-23T06:03:56;102415.13;;;-0.06;100.00
63035;BME280;59750;53.356;-1.458;2023-01-23T06:06:22;102412.59;;;0.05;100.00
63035;BME280;59750;53.356;-1.458;2023-01-23T06:08:47;102416.91;;;0.09;100.00
63035;BME280;59750;53.356;-1.458;2023-01-23T06:11:13;102416.91;;;0.12;100.00
63035;BME280;59750;53.356;-1.458;2023-01-23T06:13:39;102415.19;;;0.11;100.00
63035;BME280;59750;53.356;-1.458;2023-01-23T06:16:05;102417.75;;;0.09;100.00
63035;BME280;59750;53.356;-1.458;2023-01-23T06:18:32;102428.13;;;0.12;100.00
63035;BME280;59750;53.356;-1.458;2023-01-23T06:20:59;102436.75;;;0.14;100.00
63035;BME280;59750;53.356;-1.458;2023-01-23T06:23:26;102441.91;;;0.13;100.00
63035;BME280;59750;53.356;-1.458;2023-01-23T06:25:52;102444.50;;;0.13;100.00
63035;BME280;59750;53.356;-1.458;2023-01-23T06:28:18;102447.09;;;0.14;100.00
63035;BME280;59750;53.356;-1.458;2023-01-23T06:30:44;102453.13;;;0.15;100.00
63035;BME280;59750;53.356;-1.458;2023-01-23T06:33:09;102453.13;;;0.15;100.00
63035;BME280;59750;53.356;-1.458;2023-01-23T06:35:35;102448.81;;;0.11;100.00
63035;BME280;59750;53.356;-1.458;2023-01-23T06:38:01;102450.53;;;0.13;100.00
63035;BME280;59750;53.356;-1.458;2023-01-23T06:40:27;102454.00;;;0.14;100.00
63035;BME280;59750;53.356;-1.458;2023-01-23T06:42:54;102450.53;;;0.13;100.00
63035;BME280;59750;53.356;-1.458;2023-01-23T06:45:20;102447.09;;;0.25;100.00
63035;BME280;59750;53.356;-1.458;2023-01-23T06:47:46;102441.94;;;0.26;100.00
63035;BME280;59750;53.356;-1.458;2023-01-23T06:50:12;102451.47;;;0.38;100.00
63035;BME280;59750;53.356;-1.458;2023-01-23T06:52:38;102448.00;;;0.36;100.00
63035;BME280;59750;53.356;-1.458;2023-01-23T06:55:05;102446.28;;;0.37;100.00
63035;BME280;59750;53.356;-1.458;2023-01-23T06:57:32;102454.06;;;0.41;100.00
63035;BME280;59750;53.356;-1.458;2023-01-23T06:59:59;102458.38;;;0.45;100.00
63035;BME280;59750;53.356;-1.458;2023-01-23T07:02:24;102472.19;;;0.44;100.00
63035;BME280;59750;53.356;-1.458;2023-01-23T07:04:51;102467.88;;;0.42;100.00
63035;BME280;59750;53.356;-1.458;2023-01-23T07:07:20;102481.66;;;0.45;100.00
63035;BME280;59750;53.356;-1.458;2023-01-23T07:09:46;102474.75;;;0.43;100.00
63035;BME280;59750;53.356;-1.458;2023-01-23T07:12:12;102478.22;;;0.48;100.00
63035;BME280;59750;53.356;-1.458;2023-01-23T07:14:38;102479.09;;;0.48;100.00
63035;BME280;59750;53.356;-1.458;2023-01-23T07:17:04;102479.09;;;0.51;100.00
63035;BME280;59750;53.356;-1.458;2023-01-23T07:19:30;102473.91;;;0.51;100.00
63035;BME280;59750;53.356;-1.458;2023-01-23T07:21:55;102475.63;;;0.49;100.00
63035;BME280;59750;53.356;-1.458;2023-01-23T07:24:22;102482.56;;;0.56;100.00
63035;BME280;59750;53.356;-1.458;2023-01-23T07:26:48;102485.13;;;0.53;100.00
63035;BME280;59750;53.356;-1.458;2023-01-23T07:29:14;102488.59;;;0.54;100.00
63035;BME280;59750;53.356;-1.458;2023-01-23T07:31:40;102484.28;;;0.56;100.00
63035;BME280;59750;53.356;-1.458;2023-01-23T07:34:06;102482.53;;;0.53;100.00
63035;BME280;59750;53.356;-1.458;2023-01-23T07:36:32;102486.03;;;0.55;100.00
63035;BME280;59750;53.356;-1.458;2023-01-23T07:38:58;102493.75;;;0.52;100.00
63035;BME280;59750;53.356;-1.458;2023-01-23T07:41:23;102492.91;;;0.53;100.00
63035;BME280;59750;53.356;-1.458;2023-01-23T07:43:50;102493.75;;;0.52;100.00
63035;BME280;59750;53.356;-1.458;2023-01-23T07:46:15;102490.34;;;0.55;100.00
63035;BME280;59750;53.356;-1.458;2023-01-23T07:48:41;102484.25;;;0.54;100.00
63035;BME280;59750;53.356;-1.458;2023-01-23T07:51:07;102480.81;;;0.52;100.00
63035;BME280;59750;53.356;-1.458;2023-01-23T07:53:33;102484.25;;;0.48;100.00
63035;BME280;59750;53.356;-1.458;2023-01-23T07:56:03;102485.13;;;0.50;100.00
63035;BME280;59750;53.356;-1.458;2023-01-23T07:58:29;102500.66;;;0.53;100.00
63035;BME280;59750;53.356;-1.458;2023-01-23T08:00:55;102499.81;;;0.51;100.00
63035;BME280;59750;53.356;-1.458;2023-01-23T08:03:22;102510.16;;;0.44;100.00
63035;BME280;59750;53.356;-1.458;2023-01-23T08:05:51;102514.47;;;0.52;100.00
63035;BME280;59750;53.356;-1.458;2023-01-23T08:08:17;102512.75;;;0.51;100.00
63035;BME280;59750;53.356;-1.458;2023-01-23T08:10:43;102514.47;;;0.52;100.00
63035;BME280;59750;53.356;-1.458;2023-01-23T08:13:09;102508.44;;;0.53;100.00
63035;BME280;59750;53.356;-1.458;2023-01-23T08:15:36;102502.44;;;0.62;100.00
63035;BME280;59750;53.356;-1.458;2023-01-23T08:18:04;102503.28;;;0.59;100.00
63035;BME280;59750;53.356;-1.458;2023-01-23T08:20:30;102496.38;;;0.58;100.00
63035;BME280;59750;53.356;-1.458;2023-01-23T08:22:56;102488.63;;;0.58;100.00
63035;BME280;59750;53.356;-1.458;2023-01-23T08:25:23;102484.28;;;0.56;100.00
63035;BME280;59750;53.356;-1.458;2023-01-23T08:27:49;102480.84;;;0.55;100.00
63035;BME280;59750;53.356;-1.458;2023-01-23T08:30:18;102480.81;;;0.46;100.00
63035;BME280;59750;53.356;-1.458;2023-01-23T08:32:44;102485.13;;;0.43;100.00
63035;BME280;59750;53.356;-1.458;2023-01-23T08:35:10;102485.13;;;0.32;100.00
63035;BME280;59750;53.356;-1.458;2023-01-23T08:37:37;102491.13;;;0.25;100.00
63035;BME280;59750;53.356;-1.458;2023-01-23T08:40:04;102485.97;;;0.34;100.00
63035;BME280;59750;53.356;-1.458;2023-01-23T08:42:31;102490.28;;;0.34;100.00
63035;BME280;59750;53.356;-1.458;2023-01-23T08:44:57;102496.34;;;0.37;100.00
63035;BME280;59750;53.356;-1.458;2023-01-23T08:47:23;102511.00;;;0.38;100.00
63035;BME280;59750;53.356;-1.458;2023-01-23T08:49:49;102519.63;;;0.37;100.00
63035;BME280;59750;53.356;-1.458;2023-01-23T08:52:15;102530.84;;;0.33;100.00
63035;BME280;59750;53.356;-1.458;2023-01-23T08:54:41;102534.28;;;0.32;100.00
63035;BME280;59750;53.356;-1.458;2023-01-23T08:57:07;102528.25;;;0.35;100.00
63035;BME280;59750;53.356;-1.458;2023-01-23T08:59:33;102525.66;;;0.33;100.00
63035;BME280;59750;53.356;-1.458;2023-01-23T09:01:59;102530.84;;;0.33;100.00
63035;BME280;59750;53.356;-1.458;2023-01-23T09:04:25;102530.00;;;0.37;100.00
63035;BME280;59750;53.356;-1.458;2023-01-23T09:06:51;102536.03;;;0.42;100.00
63035;BME280;59750;53.356;-1.458;2023-01-23T09:09:16;102534.31;;;0.41;100.00
63035;BME280;59750;53.356;-1.458;2023-01-23T09:11:42;102536.03;;;0.42;100.00
63035;BME280;59750;53.356;-1.458;2023-01-23T09:14:11;102537.78;;;0.46;100.00
63035;BME280;59750;53.356;-1.458;2023-01-23T09:16:37;102532.59;;;0.51;100.00
63035;BME280;59750;53.356;-1.458;2023-01-23T09:19:05;102534.38;;;0.63;100.00
63035;BME280;59750;53.356;-1.458;2023-01-23T09:21:32;102531.81;;;1.07;100.00
63035;BME280;59750;53.356;-1.458;2023-01-23T09:23:59;102529.22;;;1.42;100.00
63035;BME280;59750;53.356;-1.458;2023-01-23T09:26:25;102534.28;;;1.94;100.00
63035;BME280;59750;53.356;-1.458;2023-01-23T09:28:53;102537.47;;;2.44;100.00
63035;BME280;59750;53.356;-1.458;2023-01-23T09:31:19;102535.41;;;2.98;100.00
63035;BME280;59750;53.356;-1.458;2023-01-23T09:33:47;102534.31;;;3.24;100.00
63035;BME280;59750;53.356;-1.458;2023-01-23T09:36:13;102539.00;;;3.76;100.00
63035;BME280;59750;53.356;-1.458;2023-01-23T09:38:39;102533.25;;;4.23;100.00
63035;BME280;59750;53.356;-1.458;2023-01-23T09:48:56;102553.41;;;4.07;94.86
63035;BME280;59750;53.356;-1.458;2023-01-23T09:53:58;102565.72;;;3.04;100.00
63035;BME280;59750;53.356;-1.458;2023-01-23T10:01:24;102560.84;;;2.51;100.00
63035;BME280;59750;53.356;-1.458;2023-01-23T10:03:51;102561.56;;;2.71;100.00
63035;BME280;59750;53.356;-1.458;2023-01-23T10:06:22;102550.31;;;2.76;100.00
63035;BME280;59750;53.356;-1.458;2023-01-23T10:25:35;102569.31;;;5.63;93.10
63035;BME280;59750;53.356;-1.458;2023-01-23T10:30:48;102571.38;;;5.95;89.65
63035;BME280;59750;53.356;-1.458;2023-01-23T10:33:18;102560.72;;;6.86;84.68
63035;BME280;59750;53.356;-1.458;2023-01-23T10:36:05;102555.59;;;6.79;81.08
63035;BME280;59750;53.356;-1.458;2023-01-23T10:41:25;102551.53;;;7.05;82.37
63035;BME280;59750;53.356;-1.458;2023-01-23T10:43:53;102553.00;;;6.41;81.62
63035;BME280;59750;53.356;-1.458;2023-01-23T10:46:51;102558.75;;;6.16;83.05
63035;BME280;59750;53.356;-1.458;2023-01-23T10:49:37;102561.50;;;5.63;88.00
63035;BME280;59750;53.356;-1.458;2023-01-23T10:57:46;102559.19;;;4.95;92.88
63035;BME280;59750;53.356;-1.458;2023-01-23T11:00:26;102548.44;;;5.12;91.52
63035;BME280;59750;53.356;-1.458;2023-01-23T11:02:54;102555.56;;;5.04;95.62
63035;BME280;59750;53.356;-1.458;2023-01-23T11:05:40;102555.84;;;4.84;95.48
63035;BME280;59750;53.356;-1.458;2023-01-23T11:08:34;102551.44;;;4.27;95.48
63035;BME280;59750;53.356;-1.458;2023-01-23T11:11:21;102550.53;;;4.28;97.80
63035;BME280;59750;53.356;-1.458;2023-01-23T11:14:03;102559.31;;;4.21;99.02
63035;BME280;59750;53.356;-1.458;2023-01-23T11:16:30;102557.44;;;4.95;96.93
63035;BME280;59750;53.356;-1.458;2023-01-23T11:21:49;102542.56;;;5.51;93.27
63035;BME280;59750;53.356;-1.458;2023-01-23T11:24:20;102547.81;;;5.96;92.90
63035;BME280;59750;53.356;-1.458;2023-01-23T11:38:02;102538.03;;;7.22;79.30
63035;BME280;59750;53.356;-1.458;2023-01-23T11:40:30;102543.09;;;8.24;76.97
63035;BME280;59750;53.356;-1.458;2023-01-23T11:42:56;102538.88;;;8.49;79.01
63035;BME280;59750;53.356;-1.458;2023-01-23T11:51:15;102521.84;;;8.62;77.57
63035;BME280;59750;53.356;-1.458;2023-01-23T11:56:44;102516.16;;;8.48;73.82
63035;BME280;59750;53.356;-1.458;2023-01-23T11:59:38;102503.06;;;8.47;71.63
63035;BME280;59750;53.356;-1.458;2023-01-23T12:02:15;102507.97;;;8.59;74.70
63035;BME280;59750;53.356;-1.458;2023-01-23T12:05:07;102511.34;;;8.62;77.09
63035;BME280;59750;53.356;-1.458;2023-01-23T12:08:02;102508.09;;;9.09;73.87
63035;BME280;59750;53.356;-1.458;2023-01-23T12:10:48;102509.56;;;9.67;73.78
63035;BME280;59750;53.356;-1.458;2023-01-23T12:13:34;102511.56;;;8.83;72.45
63035;BME280;59750;53.356;-1.458;2023-01-23T12:16:18;102522.81;;;10.11;72.20
63035;BME280;59750;53.356;-1.458;2023-01-23T12:21:52;102526.56;;;8.79;70.97
63035;BME280;59750;53.356;-1.458;2023-01-23T12:27:22;102518.91;;;8.72;69.93
63035;BME280;59750;53.356;-1.458;2023-01-23T12:35:21;102527.09;;;8.33;74.20
63035;BME280;59750;53.356;-1.458;2023-01-23T12:40:47;102529.00;;;7.33;79.54
63035;BME280;59750;53.356;-1.458;2023-01-23T12:45:52;102534.91;;;6.70;87.45
63035;BME280;59750;53.356;-1.458;2023-01-23T12:48:28;102530.09;;;6.52;83.82
63035;BME280;59750;53.356;-1.458;2023-01-23T12:51:05;102535.53;;;6.43;87.79
63035;BME280;59750;53.356;-1.458;2023-01-23T12:53:36;102544.75;;;6.19;90.46
63035;BME280;59750;53.356;-1.458;2023-01-23T12:58:47;102537.09;;;5.64;92.39
63035;BME280;59750;53.356;-1.458;2023-01-23T13:01:41;102542.66;;;5.45;93.62
63035;BME280;59750;53.356;-1.458;2023-01-23T13:06:57;102536.72;;;5.37;93.53
63035;BME280;59750;53.356;-1.458;2023-01-23T13:12:22;102537.59;;;5.36;97.61
63035;BME280;59750;53.356;-1.458;2023-01-23T13:14:53;102543.78;;;5.32;95.95
63035;BME280;59750;53.356;-1.458;2023-01-23T13:31:35;102526.97;;;5.48;93.57
63035;BME280;59750;53.356;-1.458;2023-01-23T13:36:51;102514.63;;;5.56;94.28
63035;BME280;59750;53.356;-1.458;2023-01-23T13:39:22;102511.84;;;5.64;93.34
63035;BME280;59750;53.356;-1.458;2023-01-23T13:50:52;102504.31;;;5.50;91.60
63035;BME280;59750;53.356;-1.458;2023-01-23T13:53:25;102506.03;;;5.51;91.60
63035;BME280;59750;53.356;-1.458;2023-01-23T13:56:28;102508.53;;;5.56;89.49
63035;BME280;59750;53.356;-1.458;2023-01-23T13:59:15;102505.09;;;5.54;90.00
63035;BME280;59750;53.356;-1.458;2023-01-23T14:01:51;102512.00;;;5.56;93.16
63035;BME280;59750;53.356;-1.458;2023-01-23T14:04:41;102507.44;;;5.68;92.04
63035;BME280;59750;53.356;-1.458;2023-01-23T14:07:32;102500.50;;;5.67;88.12
63035;BME280;59750;53.356;-1.458;2023-01-23T14:10:20;102503.84;;;5.73;88.88
63035;BME280;59750;53.356;-1.458;2023-01-23T14:12:47;102500.69;;;5.57;89.18
63035;BME280;59750;53.356;-1.458;2023-01-23T14:15:32;102506.03;;;5.51;89.37
63035;BME280;59750;53.356;-1.458;2023-01-23T14:23:41;102508.91;;;5.36;90.07
63035;BME280;59750;53.356;-1.458;2023-01-23T14:26:14;102514.16;;;5.35;90.50
63035;BME280;59750;53.356;-1.458;2023-01-23T14:28:50;102512.47;;;5.31;87.27
63035;BME280;59750;53.356;-1.458;2023-01-23T14:31:28;102516.94;;;5.24;88.27
63035;BME280;59750;53.356;-1.458;2023-01-23T14:36:45;102521.78;;;4.96;92.19
63035;BME280;59750;53.356;-1.458;2023-01-23T14:39:20;102520.91;;;4.95;90.70
63035;BME280;59750;53.356;-1.458;2023-01-23T14:41:49;102523.50;;;4.97;90.68
63035;BME280;59750;53.356;-1.458;2023-01-23T14:44:26;102507.88;;;4.92;90.84
63035;BME280;59750;53.356;-1.458;2023-01-23T14:46:57;102513.91;;;4.97;89.38
63035;BME280;59750;53.356;-1.458;2023-01-23T14:49:30;102513.97;;;4.94;91.46
63035;BME280;59750;53.356;-1.458;2023-01-23T14:52:01;102514.75;;;5.00;89.95
63035;BME280;59750;53.356;-1.458;2023-01-23T14:54:28;102522.41;;;5.09;89.82
63035;BME280;59750;53.356;-1.458;2023-01-23T14:56:56;102531.03;;;5.14;91.57
63035;BME280;59750;53.356;-1.458;2023-01-23T14:59:32;102522.41;;;5.09;91.50
63035;BME280;59750;53.356;-1.458;2023-01-23T15:02:01;102513.69;;;5.10;91.13
63035;BME280;59750;53.356;-1.458;2023-01-23T15:04:28;102517.19;;;5.09;89.14
63035;BME280;59750;53.356;-1.458;2023-01-23T15:07:04;102512.91;;;5.06;88.46